Time;durP1;ratioP1;P1;durP2;ratioP2;P2;SDS_P1;SDS_P2;PMS_P1;PMS_P2;Temp;Humidity;BMP_temperature;BMP_pressure;BME280_temperature;BME280_humidity;BME280_pressure;Samples;Min_cycle;Max_cycle;Signal;HPM_P1;HPM_P2
2023/02/09 00:01:40;;;;;;;9.13;4.57;;;;;;;0.01;100.00;103139.41;2614125;31;20038;-55
2023/02/09 00:04:08;;;;;;;8.50;4.90;;;;;;;0.05;100.00;103140.28;2615208;36;20034;-56
2023/02/09 00:06:39;;;;;;;9.07;4.50;;;;;;;0.06;100.00;103148.22;2615336;36;20037;-55
2023/02/09 00:09:08;;;;;;;7.82;4.85;;;;;;;0.04;100.00;103154.41;2615024;36;20435;-55
2023/02/09 00:14:18;;;;;;;9.30;6.07;;;;;;;-0.24;100.00;103154.59;2615441;36;20023;-54
2023/02/09 00:16:46;;;;;;;10.20;4.90;;;;;;;-0.19;100.00;103152.81;2615445;31;20030;-55
2023/02/09 00:19:15;;;;;;;9.05;4.97;;;;;;;-0.19;100.00;103148.41;2615278;36;20038;-55
2023/02/09 00:21:46;;;;;;;9.07;5.30;;;;;;;-0.19;100.00;103150.19;2616228;36;20030;-52
2023/02/09 00:24:15;;;;;;;8.18;4.93;;;;;;;-0.26;100.00;103146.69;2615552;31;20045;-52
2023/02/09 00:26:44;;;;;;;8.55;5.25;;;;;;;-0.24;100.00;103144.00;2614640;36;20037;-53
2023/02/09 00:29:13;;;;;;;10.75;5.43;;;;;;;-0.16;100.00;103141.31;2614655;36;20030;-52
2023/02/09 00:31:41;;;;;;;11.82;5.65;;;;;;;-0.27;100.00;103136.97;2614807;36;20046;-55
2023/02/09 00:34:10;;;;;;;11.52;4.80;;;;;;;-0.32;100.00;103136.13;2615488;31;20467;-55
2023/02/09 00:36:38;;;;;;;9.45;5.05;;;;;;;-0.43;100.00;103136.19;2615597;36;20042;-53
2023/02/09 00:39:10;;;;;;;9.27;5.35;;;;;;;-0.52;100.00;103138.88;2615508;36;20039;-54
2023/02/09 00:44:19;;;;;;;10.65;5.70;;;;;;;-0.55;100.00;103139.78;2615963;36;20038;-55
2023/02/09 00:46:47;;;;;;;10.57;5.17;;;;;;;-0.54;100.00;103140.66;2615533;36;20036;-57
2023/02/09 00:49:17;;;;;;;10.38;5.70;;;;;;;-0.52;100.00;103144.19;2615172;36;20077;-54
2023/02/09 00:51:45;;;;;;;12.20;6.30;;;;;;;-0.53;100.00;103139.75;2615380;31;20034;-57
2023/02/09 00:54:16;;;;;;;10.77;5.53;;;;;;;-0.56;100.00;103137.13;2615243;36;20908;-54
2023/02/09 00:56:44;;;;;;;11.32;5.47;;;;;;;-0.53;100.00;103139.75;2615158;36;20062;-55
2023/02/09 00:59:13;;;;;;;10.03;5.27;;;;;;;-0.59;100.00;103132.78;2617187;36;20550;-56
2023/02/09 01:01:42;;;;;;;10.45;5.72;;;;;;;-0.52;100.00;103133.59;2615732;31;20041;-56
2023/02/09 01:04:10;;;;;;;10.93;5.80;;;;;;;-0.32;100.00;103132.59;2616183;36;20459;-56
2023/02/09 01:06:38;;;;;;;12.50;5.05;;;;;;;-0.44;100.00;103129.16;2615586;36;20041;-56
2023/02/09 01:09:07;;;;;;;9.65;5.55;;;;;;;-0.57;100.00;103124.81;2615123;36;20030;-55
2023/02/09 01:11:38;;;;;;;10.93;5.68;;;;;;;-0.60;100.00;103125.72;2616128;36;20041;-56
2023/02/09 01:14:06;;;;;;;8.35;5.18;;;;;;;-0.64;100.00;103126.59;2615528;36;20027;-57
2023/02/09 01:16:34;;;;;;;12.15;5.82;;;;;;;-0.72;100.00;103129.28;2616610;36;20431;-54
2023/02/09 01:19:03;;;;;;;8.40;5.38;;;;;;;-0.66;100.00;103117.81;2615592;36;20068;-55
2023/02/09 01:21:32;;;;;;;11.02;5.30;;;;;;;-0.75;100.00;103118.72;2616228;36;20023;-55
2023/02/09 01:24:01;;;;;;;11.52;5.97;;;;;;;-0.68;100.00;103119.56;2616214;36;20412;-55
2023/02/09 01:26:29;;;;;;;10.73;6.07;;;;;;;-0.76;100.00;103113.47;2615895;36;20042;-56
2023/02/09 01:29:00;;;;;;;13.50;6.07;;;;;;;-0.77;100.00;103117.84;2616439;36;20467;-56
2023/02/09 01:31:30;;;;;;;13.20;6.25;;;;;;;-0.78;100.00;103121.41;2615089;36;20038;-54
2023/02/09 01:34:01;;;;;;;16.02;6.35;;;;;;;-0.85;100.00;103119.66;2615781;36;20030;-54
2023/02/09 01:36:30;;;;;;;11.65;6.90;;;;;;;-0.80;100.00;103124.94;2615759;36;20555;-53
2023/02/09 01:39:00;;;;;;;10.07;6.20;;;;;;;-0.74;100.00;103123.16;2615928;36;20034;-56
2023/02/09 01:41:29;;;;;;;13.88;6.70;;;;;;;-0.75;100.00;103113.44;2615943;36;20036;-56
2023/02/09 01:44:02;;;;;;;10.93;5.68;;;;;;;-0.73;100.00;103113.44;2616212;36;20038;-53
2023/02/09 01:46:32;;;;;;;13.60;5.88;;;;;;;-0.66;100.00;103109.88;2616043;31;20049;-56
2023/02/09 01:49:06;;;;;;;10.45;5.95;;;;;;;-0.72;100.00;103105.50;2615675;36;20042;-55
2023/02/09 01:51:38;;;;;;;12.75;5.90;;;;;;;-0.63;100.00;103103.66;2615877;36;20031;-53
2023/02/09 01:54:09;;;;;;;9.65;5.65;;;;;;;-0.60;100.00;103106.31;2615552;36;20041;-56
2023/02/09 01:56:40;;;;;;;12.73;5.63;;;;;;;-0.54;100.00;103108.94;2616312;36;20125;-57
2023/02/09 01:59:18;;;;;;;10.68;5.85;;;;;;;-0.53;100.00;103100.09;2616916;54;20073;-54
2023/02/09 02:01:47;;;;;;;13.38;6.30;;;;;;;-0.62;100.00;103101.03;2615727;36;20038;-55
2023/02/09 02:04:15;;;;;;;10.57;6.30;;;;;;;-0.52;100.00;103106.28;2615204;36;20030;-54
2023/02/09 02:06:44;;;;;;;10.00;6.22;;;;;;;-0.61;100.00;103091.34;2616055;36;20452;-53
2023/02/09 02:09:15;;;;;;;10.07;5.23;;;;;;;-0.60;100.00;103093.97;2615456;36;20034;-57
2023/02/09 02:11:47;;;;;;;8.05;5.13;;;;;;;-0.65;100.00;103093.09;2615864;32;20849;-54
2023/02/09 02:14:34;;;;;;;9.63;5.63;;;;;;;-0.59;100.00;103089.53;2615791;36;20026;-56
2023/02/09 02:17:14;;;;;;;10.25;5.15;;;;;;;-0.59;100.00;103079.88;2615595;36;20041;-53
2023/02/09 02:20:13;;;;;;;11.98;6.00;;;;;;;-0.58;100.00;103070.16;2615640;31;20535;-53
2023/02/09 02:22:54;;;;;;;12.05;5.43;;;;;;;-0.65;100.00;103069.28;2615636;36;20038;-54
2023/02/09 02:25:56;;;;;;;10.63;6.05;;;;;;;-0.70;100.00;103068.47;2615677;36;20035;-54
2023/02/09 02:28:43;;;;;;;9.80;5.85;;;;;;;-0.65;100.00;103065.78;2615395;36;20042;-53
2023/02/09 02:31:51;;;;;;;11.88;5.70;;;;;;;-0.76;100.00;103061.44;2615552;36;20054;-54
2023/02/09 02:34:25;;;;;;;10.48;5.45;;;;;;;-0.82;100.00;103061.47;2616437;31;20424;-54
2023/02/09 02:37:01;;;;;;;11.50;6.35;;;;;;;-0.72;100.00;103060.53;2615737;31;20046;-54
2023/02/09 02:39:38;;;;;;;11.52;5.90;;;;;;;-0.68;100.00;103060.53;2615750;36;20042;-52
2023/02/09 02:45:03;;;;;;;10.80;5.40;;;;;;;-0.68;100.00;103068.44;2609418;31;20041;-56
2023/02/09 02:47:38;;;;;;;10.35;5.20;;;;;;;-0.75;100.00;103078.16;2609087;31;20031;-52
2023/02/09 02:50:13;;;;;;;11.77;5.28;;;;;;;-0.83;100.00;103065.00;2608628;36;20582;-55
2023/02/09 02:52:46;;;;;;;12.32;6.18;;;;;;;-0.84;100.00;103063.25;2608865;36;20062;-53
2023/02/09 02:55:18;;;;;;;12.60;6.00;;;;;;;-0.78;100.00;103060.59;2609319;36;20058;-54
2023/02/09 02:57:51;;;;;;;11.65;6.05;;;;;;;-0.81;100.00;103057.97;2609253;36;20042;-52
2023/02/09 03:00:24;;;;;;;10.85;5.47;;;;;;;-0.68;100.00;103052.59;2609617;36;20041;-55
2023/02/09 03:02:59;;;;;;;10.00;5.25;;;;;;;-0.69;100.00;103059.66;2608193;36;20038;-56
2023/02/09 03:05:29;;;;;;;10.15;5.40;;;;;;;-0.55;100.00;103059.53;2609511;36;20046;-57
2023/02/09 03:07:57;;;;;;;13.32;5.90;;;;;;;-0.63;100.00;103056.97;2610201;36;20563;-54
2023/02/09 03:10:31;;;;;;;11.63;5.82;;;;;;;-0.60;100.00;103051.66;2608817;36;20026;-54
2023/02/09 03:13:15;;;;;;;10.20;5.78;;;;;;;-0.78;100.00;103031.50;2609419;36;20162;-56
2023/02/09 03:15:58;;;;;;;11.80;5.82;;;;;;;-0.74;100.00;103030.59;2609482;36;20038;-55
2023/02/09 03:18:37;;;;;;;10.68;5.85;;;;;;;-0.85;100.00;103024.47;2609472;36;21613;-54
2023/02/09 03:21:12;;;;;;;11.02;5.47;;;;;;;-0.89;100.00;103013.03;2610276;36;20579;-55
2023/02/09 03:23:46;;;;;;;13.82;6.30;;;;;;;-0.80;100.00;103017.38;2609444;31;20584;-55
2023/02/09 03:26:20;;;;;;;11.07;6.07;;;;;;;-0.92;100.00;103022.75;2610515;36;20046;-53
2023/02/09 03:28:51;;;;;;;11.38;6.00;;;;;;;-0.95;100.00;103010.44;2609418;31;20038;-53
2023/02/09 03:31:20;;;;;;;12.73;6.03;;;;;;;-0.86;100.00;103016.56;2610316;31;20043;-54
2023/02/09 03:33:51;;;;;;;10.73;5.60;;;;;;;-0.95;100.00;103005.16;2610582;31;20034;-55
2023/02/09 03:36:22;;;;;;;10.45;5.03;;;;;;;-1.01;100.00;102999.03;2609340;36;20555;-53
2023/02/09 03:38:50;;;;;;;13.98;6.03;;;;;;;-1.03;100.00;102996.41;2610450;36;20042;-53
2023/02/09 03:41:18;;;;;;;11.48;6.45;;;;;;;-1.04;100.00;102999.06;2609791;31;20042;-53
2023/02/09 03:46:27;;;;;;;11.57;5.75;;;;;;;-1.02;100.00;103005.19;2609367;36;20035;-55
2023/02/09 03:48:58;;;;;;;13.20;6.43;;;;;;;-1.17;100.00;103012.31;2609537;36;20437;-55
2023/02/09 03:51:26;;;;;;;11.32;6.22;;;;;;;-1.01;100.00;103004.31;2609744;31;20427;-53
2023/02/09 03:53:55;;;;;;;10.45;5.63;;;;;;;-1.06;100.00;102994.63;2609450;31;20039;-55
2023/02/09 03:56:23;;;;;;;10.80;5.78;;;;;;;-1.14;100.00;102996.44;2610107;31;20054;-56
2023/02/09 03:58:52;;;;;;;9.45;5.85;;;;;;;-0.99;100.00;102997.25;2609790;36;20520;-55
2023/02/09 04:01:20;;;;;;;12.37;6.07;;;;;;;-1.10;100.00;102994.66;2610227;36;20045;-55
2023/02/09 04:03:49;;;;;;;11.68;5.68;;;;;;;-1.13;100.00;103002.63;2609776;36;20041;-55
2023/02/09 04:06:19;;;;;;;11.13;6.00;;;;;;;-1.13;100.00;102997.34;2611894;36;22088;-52
2023/02/09 04:08:48;;;;;;;13.48;6.65;;;;;;;-1.14;100.00;102993.78;2609724;36;20041;-56
2023/02/09 04:11:16;;;;;;;10.02;6.28;;;;;;;-1.09;100.00;102994.66;2609610;36;20042;-55
2023/02/09 04:13:44;;;;;;;12.07;6.45;;;;;;;-1.12;100.00;102986.75;2610277;31;20042;-55
2023/02/09 04:16:14;;;;;;;10.07;5.60;;;;;;;-1.14;100.00;102977.94;2610662;31;20451;-54
2023/02/09 04:18:42;;;;;;;11.15;6.05;;;;;;;-1.17;100.00;102980.59;2610296;36;20031;-56
2023/02/09 04:21:11;;;;;;;10.93;5.88;;;;;;;-1.04;100.00;102986.69;2608858;36;20041;-55
2023/02/09 04:23:41;;;;;;;14.57;6.70;;;;;;;-1.09;100.00;102973.53;2609081;36;20042;-54
2023/02/09 04:26:10;;;;;;;13.50;6.80;;;;;;;-1.08;100.00;102979.66;2609686;31;20041;-57
2023/02/09 04:28:39;;;;;;;14.35;7.03;;;;;;;-1.00;100.00;102982.25;2609389;36;20565;-55
2023/02/09 04:31:07;;;;;;;13.57;6.38;;;;;;;-0.99;100.00;103002.53;2609114;36;20045;-52
2023/02/09 04:33:36;;;;;;;10.70;5.80;;;;;;;-0.97;100.00;103000.75;2609807;36;20442;-55
2023/02/09 04:36:04;;;;;;;11.70;6.18;;;;;;;-1.13;100.00;102979.69;2609849;36;20035;-55
2023/02/09 04:38:33;;;;;;;8.95;5.20;;;;;;;-1.09;100.00;102994.66;2611161;36;20045;-56
2023/02/09 04:41:05;;;;;;;13.68;6.65;;;;;;;-1.02;100.00;102990.19;2609799;36;20043;-56
2023/02/09 04:43:34;;;;;;;11.98;6.15;;;;;;;-1.02;100.00;102989.34;2610551;36;20043;-54
2023/02/09 04:46:03;;;;;;;12.60;6.32;;;;;;;-1.01;100.00;102991.09;2609697;36;20046;-54
2023/02/09 04:48:32;;;;;;;13.05;6.63;;;;;;;-1.12;100.00;102985.84;2609878;31;20034;-55
2023/02/09 04:51:00;;;;;;;13.23;6.80;;;;;;;-1.17;100.00;102988.53;2609119;36;20042;-54
2023/02/09 04:53:28;;;;;;;13.02;6.10;;;;;;;-1.09;100.00;102994.66;2610405;36;20042;-55
2023/02/09 04:55:57;;;;;;;12.35;6.70;;;;;;;-1.00;100.00;103006.06;2609951;31;20062;-55
2023/02/09 05:01:10;;;;;;;12.65;6.45;;;;;;;-1.11;100.00;103008.75;2611311;31;20041;-54
2023/02/09 05:03:38;;;;;;;12.48;6.95;;;;;;;-1.02;100.00;103021.06;2610282;36;20042;-56
2023/02/09 05:06:08;;;;;;;10.17;5.57;;;;;;;-1.14;100.00;103008.78;2610380;36;20433;-55
2023/02/09 05:08:36;;;;;;;10.48;6.25;;;;;;;-1.19;100.00;103003.53;2610806;36;20030;-52
2023/02/09 05:11:04;;;;;;;12.60;6.97;;;;;;;-1.19;100.00;102998.25;2611157;36;20069;-52
2023/02/09 05:13:36;;;;;;;9.82;6.05;;;;;;;-1.13;100.00;102998.19;2611994;36;20034;-56
2023/02/09 05:16:07;;;;;;;12.55;5.90;;;;;;;-1.10;100.00;102987.59;2610422;31;20042;-55
2023/02/09 05:18:37;;;;;;;10.82;5.75;;;;;;;-1.14;100.00;102985.88;2610169;36;20063;-54
2023/02/09 05:21:05;;;;;;;10.75;6.07;;;;;;;-1.01;100.00;102996.38;2611580;36;20034;-55
2023/02/09 05:23:33;;;;;;;12.50;6.40;;;;;;;-1.10;100.00;102987.59;2612886;31;20555;-53
2023/02/09 05:26:02;;;;;;;9.65;5.40;;;;;;;-1.08;100.00;102992.88;2612371;36;20054;-53
2023/02/09 05:28:30;;;;;;;9.47;5.83;;;;;;;-0.94;100.00;103006.03;2611959;36;20038;-53
2023/02/09 05:31:07;;;;;;;15.27;6.10;;;;;;;-1.02;100.00;103010.47;2613130;39;20440;-54
2023/02/09 05:33:36;;;;;;;10.70;5.55;;;;;;;-1.05;100.00;103011.38;2613117;36;20108;-54
2023/02/09 05:36:08;;;;;;;11.50;6.53;;;;;;;-1.11;100.00;103017.56;2612741;36;20033;-55
2023/02/09 05:38:36;;;;;;;13.77;6.10;;;;;;;-1.15;100.00;103023.78;2612290;36;20030;-54
2023/02/09 05:41:09;;;;;;;14.05;5.93;;;;;;;-1.06;100.00;103031.66;2611786;54;20699;-56
2023/02/09 05:43:38;;;;;;;13.25;6.40;;;;;;;-1.12;100.00;103031.69;2614466;36;20579;-52
2023/02/09 05:46:09;;;;;;;9.35;6.05;;;;;;;-1.22;100.00;103024.69;2615206;31;20034;-55
2023/02/09 05:48:37;;;;;;;11.88;6.15;;;;;;;-1.21;100.00;103025.53;2614818;31;20046;-56
2023/02/09 05:51:06;;;;;;;9.45;5.43;;;;;;;-1.21;100.00;103018.47;2615260;36;20026;-55
2023/02/09 05:53:34;;;;;;;10.40;6.10;;;;;;;-1.27;100.00;103026.44;2615076;36;20760;-57
2023/02/09 05:56:03;;;;;;;10.77;6.25;;;;;;;-1.30;100.00;103029.09;2614557;36;20041;-57
2023/02/09 05:58:31;;;;;;;14.63;7.03;;;;;;;-1.28;100.00;103032.59;2614209;36;20034;-56
2023/02/09 06:00:59;;;;;;;13.20;6.63;;;;;;;-1.23;100.00;103030.84;2614672;36;20038;-54
2023/02/09 06:03:30;;;;;;;12.98;6.32;;;;;;;-1.31;100.00;103040.53;2615028;36;20050;-55
2023/02/09 06:05:58;;;;;;;10.85;6.07;;;;;;;-1.27;100.00;103042.28;2614339;36;20026;-54
2023/02/09 06:08:27;;;;;;;12.13;6.90;;;;;;;-1.31;100.00;103049.38;2614226;31;20558;-55
2023/02/09 06:10:55;;;;;;;14.10;6.83;;;;;;;-1.39;100.00;103053.78;2614098;36;20031;-55
2023/02/09 06:13:24;;;;;;;10.73;5.80;;;;;;;-1.44;100.00;103053.81;2614011;36;20346;-57
2023/02/09 06:15:52;;;;;;;11.80;6.47;;;;;;;-1.46;100.00;103058.22;2614456;36;20029;-55
2023/02/09 06:18:20;;;;;;;11.73;6.57;;;;;;;-1.50;100.00;103048.53;2614521;36;20043;-57
2023/02/09 06:20:51;;;;;;;14.73;6.32;;;;;;;-1.49;100.00;103058.22;2614164;36;20030;-57
2023/02/09 06:23:19;;;;;;;12.20;6.65;;;;;;;-1.52;100.00;103052.94;2615751;36;20462;-57
2023/02/09 06:25:51;;;;;;;11.40;7.00;;;;;;;-1.51;100.00;103051.19;2615427;36;20486;-54
2023/02/09 06:28:20;;;;;;;11.57;6.60;;;;;;;-1.55;100.00;103054.72;2614497;36;20026;-55
2023/02/09 06:30:51;;;;;;;14.48;6.72;;;;;;;-1.53;100.00;103076.72;2614322;36;20046;-56
2023/02/09 06:33:20;;;;;;;11.15;6.35;;;;;;;-1.62;100.00;103073.22;2613638;36;20065;-57
2023/02/09 06:35:51;;;;;;;13.63;6.63;;;;;;;-1.57;100.00;103070.56;2613374;36;20061;-54
2023/02/09 06:38:19;;;;;;;11.45;5.90;;;;;;;-1.52;100.00;103073.19;2615244;36;20048;-57
2023/02/09 06:40:48;;;;;;;12.82;7.45;;;;;;;-1.59;100.00;103082.88;2615437;36;20041;-57
2023/02/09 06:43:17;;;;;;;11.25;6.28;;;;;;;-1.44;100.00;103088.16;2609317;36;20042;-54
2023/02/09 06:45:45;;;;;;;14.63;6.97;;;;;;;-1.42;100.00;103083.72;2613568;36;20030;-55
2023/02/09 06:48:13;;;;;;;12.90;6.30;;;;;;;-1.48;100.00;103102.22;2614337;36;20153;-57
2023/02/09 06:50:42;;;;;;;11.25;6.60;;;;;;;-1.54;100.00;103096.09;2614381;36;20049;-56
2023/02/09 06:53:13;;;;;;;12.27;6.97;;;;;;;-1.47;100.00;103098.72;2615997;31;20061;-57
2023/02/09 06:55:41;;;;;;;14.55;6.65;;;;;;;-1.54;100.00;103104.91;2616385;36;20035;-56
2023/02/09 06:58:10;;;;;;;13.43;7.10;;;;;;;-1.53;100.00;103096.09;2616827;31;20035;-57
2023/02/09 07:00:38;;;;;;;13.10;6.00;;;;;;;-1.63;100.00;103079.38;2616657;36;20551;-56
2023/02/09 07:03:06;;;;;;;12.13;6.20;;;;;;;-1.63;100.00;103092.59;2615563;36;20045;-56
2023/02/09 07:05:35;;;;;;;9.90;6.32;;;;;;;-1.66;100.00;103082.03;2615640;36;20046;-57
2023/02/09 07:08:03;;;;;;;14.75;7.15;;;;;;;-1.63;100.00;103091.72;2616993;36;20380;-53
2023/02/09 07:10:34;;;;;;;13.32;6.70;;;;;;;-1.61;100.00;103085.53;2616708;36;20035;-55
2023/02/09 07:13:02;;;;;;;12.90;6.68;;;;;;;-1.64;100.00;103072.31;2617891;31;20431;-55
2023/02/09 07:15:30;;;;;;;14.02;6.78;;;;;;;-1.59;100.00;103073.22;2616374;36;20026;-55
2023/02/09 07:18:00;;;;;;;13.93;7.45;;;;;;;-1.56;100.00;103067.06;2616349;36;20061;-53
2023/02/09 07:20:28;;;;;;;14.57;7.40;;;;;;;-1.51;100.00;103062.63;2615279;36;20054;-55
2023/02/09 07:22:56;;;;;;;14.30;6.50;;;;;;;-1.49;100.00;103057.34;2616149;36;20039;-56
2023/02/09 07:25:24;;;;;;;11.50;6.68;;;;;;;-1.43;100.00;103063.50;2616437;36;20030;-55
2023/02/09 07:27:55;;;;;;;10.05;5.78;;;;;;;-1.38;100.00;103074.03;2616836;36;20035;-55
2023/02/09 07:30:24;;;;;;;14.27;6.53;;;;;;;-1.39;100.00;103087.25;2614506;36;20050;-54
2023/02/09 07:32:52;;;;;;;14.53;6.63;;;;;;;-1.33;100.00;103079.31;2614671;31;20038;-54
2023/02/09 07:35:21;;;;;;;12.70;6.53;;;;;;;-1.37;100.00;103070.53;2613773;31;20040;-56
2023/02/09 07:37:49;;;;;;;11.70;6.53;;;;;;;-1.29;100.00;103055.50;2616373;36;20030;-56
2023/02/09 07:40:17;;;;;;;11.00;6.75;;;;;;;-1.27;100.00;103048.44;2610805;31;20042;-56
2023/02/09 07:42:46;;;;;;;15.57;6.78;;;;;;;-1.26;100.00;103044.06;2615758;36;20045;-57
2023/02/09 07:45:17;;;;;;;13.15;7.28;;;;;;;-1.26;100.00;103038.78;2615806;36;20439;-56
2023/02/09 07:47:45;;;;;;;13.75;6.40;;;;;;;-1.28;100.00;103025.56;2614411;36;20042;-55
2023/02/09 07:50:13;;;;;;;15.13;7.18;;;;;;;-1.15;100.00;103036.97;2612449;36;20034;-55
2023/02/09 07:52:42;;;;;;;14.43;6.90;;;;;;;-1.12;100.00;103038.72;2614364;36;20035;-55
2023/02/09 07:55:10;;;;;;;11.98;6.63;;;;;;;-1.13;100.00;103045.78;2613583;36;20046;-54
2023/02/09 07:57:38;;;;;;;12.43;6.93;;;;;;;-0.88;100.00;103062.38;2613420;31;20027;-55
2023/02/09 08:00:08;;;;;;;15.88;8.13;;;;;;;-0.93;100.00;103047.44;2614929;36;20057;-55
2023/02/09 08:02:40;;;;;;;11.90;5.60;;;;;;;-0.82;100.00;103048.25;2614818;36;20037;-53
2023/02/09 08:05:15;;;;;;;12.73;7.18;;;;;;;-0.81;100.00;103063.25;2613489;36;20042;-52
2023/02/09 08:07:44;;;;;;;14.52;7.20;;;;;;;-0.81;100.00;103067.63;2615216;36;20030;-55
2023/02/09 08:10:12;;;;;;;13.95;6.60;;;;;;;-0.76;100.00;103081.72;2614472;36;20485;-55
2023/02/09 08:15:24;;;;;;;14.75;7.07;;;;;;;-0.61;100.00;103075.47;2614326;36;20045;-56
2023/02/09 08:17:58;;;;;;;17.95;7.32;;;;;;;-0.61;100.00;103073.69;2615399;36;20045;-54
2023/02/09 08:20:31;;;;;;;15.05;6.88;;;;;;;-0.55;100.00;103078.94;2614788;31;20034;-55
2023/02/09 08:23:06;;;;;;;13.20;6.70;;;;;;;-0.47;100.00;103065.69;2615761;36;20045;-53
2023/02/09 08:25:37;;;;;;;11.75;6.07;;;;;;;-0.34;100.00;103076.16;2613062;36;20045;-56
2023/02/09 08:28:06;;;;;;;13.07;6.75;;;;;;;-0.25;100.00;103089.31;2614589;36;20042;-56
2023/02/09 08:30:34;;;;;;;;;;;;;;;-0.43;100.00;103085.91;2615128;36;20042;-55
2023/02/09 08:33:05;;;;;;;14.43;6.45;;;;;;;-0.46;100.00;103088.56;2616239;36;19938;-57
2023/02/09 08:35:34;;;;;;;14.32;7.60;;;;;;;-0.46;100.00;103093.88;2613504;36;20439;-60
2023/02/09 08:38:03;;;;;;;14.98;6.95;;;;;;;-0.48;100.00;103082.44;2616962;36;20435;-55
2023/02/09 08:40:32;;;;;;;12.48;6.03;;;;;;;-0.38;100.00;103070.03;2612282;36;20057;-55
2023/02/09 08:43:00;;;;;;;13.18;7.07;;;;;;;-0.39;100.00;103061.19;2615283;36;20023;-54
2023/02/09 08:45:29;;;;;;;14.90;7.00;;;;;;;-0.39;100.00;103070.91;2615732;36;20034;-55
2023/02/09 08:47:58;;;;;;;15.10;6.80;;;;;;;-0.33;100.00;103068.22;2615749;36;20057;-55
2023/02/09 08:50:28;;;;;;;9.55;5.93;;;;;;;-0.27;100.00;103069.94;2614594;36;20033;-54
2023/02/09 08:52:58;;;;;;;14.27;6.93;;;;;;;-0.14;100.00;103074.25;2615839;36;20468;-56
2023/02/09 08:55:26;;;;;;;;;;;;;;;-0.05;100.00;103075.94;2615221;36;20031;-56
2023/02/09 08:57:54;;;;;;;12.38;6.85;;;;;;;0.02;100.00;103079.44;2615130;31;19974;-56
2023/02/09 09:00:23;;;;;;;16.25;6.35;;;;;;;0.14;100.00;103093.41;2614425;36;20034;-54
2023/02/09 09:02:51;;;;;;;14.77;6.82;;;;;;;-0.01;100.00;103080.31;2614049;36;20037;-56
2023/02/09 09:05:20;;;;;;;15.23;7.70;;;;;;;0.00;100.00;103071.50;2614107;36;20050;-54
2023/02/09 09:07:51;;;;;;;16.60;7.10;;;;;;;0.12;100.00;103067.88;2613851;36;20038;-54
2023/02/09 09:10:19;;;;;;;12.32;6.90;;;;;;;0.21;100.00;103067.78;2615794;36;20046;-53
2023/02/09 09:12:48;;;;;;;12.98;6.50;;;;;;;0.22;100.00;103051.00;2616549;36;20057;-56
2023/02/09 09:15:16;;;;;;;16.95;6.95;;;;;;;0.24;100.00;103050.97;2616298;36;20041;-54
2023/02/09 09:17:44;;;;;;;13.32;7.28;;;;;;;0.31;100.00;103061.50;2615438;36;20030;-56
2023/02/09 09:20:13;;;;;;;17.80;7.03;;;;;;;0.19;100.00;103050.13;2615898;36;20037;-53
2023/02/09 09:22:41;;;;;;;13.35;7.00;;;;;;;0.33;100.00;103050.88;2616812;36;20022;-56
2023/02/09 09:25:12;;;;;;;12.00;6.63;;;;;;;0.58;100.00;103062.09;2616361;36;20042;-55
2023/02/09 09:27:41;;;;;;;16.00;6.63;;;;;;;0.43;100.00;103073.72;2616057;36;20041;-54
2023/02/09 09:30:10;;;;;;;12.82;6.70;;;;;;;0.48;100.00;103082.50;2616165;36;20023;-55
2023/02/09 09:32:38;;;;;;;;;;;;;;;0.58;100.00;103077.97;2615080;36;20038;-56
2023/02/09 09:35:08;;;;;;;15.32;7.20;;;;;;;0.61;100.00;103080.59;2616193;36;19954;-55
2023/02/09 09:37:36;;;;;;;14.85;7.65;;;;;;;0.73;100.00;103076.06;2614295;31;20026;-55
2023/02/09 09:40:05;;;;;;;12.98;6.60;;;;;;;0.83;100.00;103073.28;2615973;36;20045;-56
2023/02/09 09:42:40;;;;;;;13.68;7.05;;;;;;;0.93;100.00;103083.75;2616018;36;20038;-57
2023/02/09 09:45:16;;;;;;;11.80;7.20;;;;;;;0.97;100.00;103080.19;2616927;31;20538;-57
2023/02/09 09:47:46;;;;;;;12.95;7.15;;;;;;;1.12;100.00;103087.06;2615180;31;20743;-56
2023/02/09 09:50:20;;;;;;;13.93;7.80;;;;;;;1.20;100.00;103090.50;2615891;36;20038;-56
2023/02/09 09:52:51;;;;;;;15.13;7.82;;;;;;;1.18;100.00;103098.47;2616124;36;20037;-57
2023/02/09 09:55:24;;;;;;;15.02;7.85;;;;;;;1.28;100.00;103088.63;2616051;36;20412;-55
2023/02/09 09:57:57;;;;;;;13.70;7.78;;;;;;;1.38;100.00;103077.00;2614751;36;20034;-57
2023/02/09 10:00:28;;;;;;;13.80;7.00;;;;;;;1.63;100.00;103095.19;2613527;36;20060;-57
2023/02/09 10:02:57;;;;;;;19.15;8.18;;;;;;;1.66;100.00;103096.94;2613507;36;20045;-56
2023/02/09 10:05:28;;;;;;;15.50;8.32;;;;;;;1.67;100.00;103104.00;2615841;36;20439;-53
2023/02/09 10:08:04;;;;;;;16.45;7.90;;;;;;;1.66;100.00;103105.75;2615863;31;20035;-57
2023/02/09 10:10:40;;;;;;;13.38;7.43;;;;;;;1.79;100.00;103105.59;2614679;36;20069;-57
2023/02/09 10:13:22;;;;;;;16.58;7.75;;;;;;;1.83;100.00;103104.66;2615334;36;20038;-56
2023/02/09 10:15:51;;;;;;;14.77;7.38;;;;;;;1.94;100.00;103097.34;2615653;36;20038;-56
2023/02/09 10:18:24;;;;;;;14.30;7.47;;;;;;;2.14;100.00;103101.50;2614995;36;20042;-55
2023/02/09 10:20:55;;;;;;;16.95;7.40;;;;;;;2.12;100.00;103092.66;2615233;36;20126;-56
2023/02/09 10:23:26;;;;;;;14.65;7.10;;;;;;;2.30;100.00;103104.72;2616045;36;20186;-56
2023/02/09 10:26:00;;;;;;;15.90;7.72;;;;;;;2.27;100.00;103090.59;2615963;36;20038;-56
2023/02/09 10:28:33;;;;;;;17.38;7.88;;;;;;;2.34;100.00;103098.47;2616357;31;20487;-54
2023/02/09 10:31:04;;;;;;;15.50;7.38;;;;;;;2.32;100.00;103109.13;2614607;36;20428;-55
2023/02/09 10:33:42;;;;;;;16.65;7.18;;;;;;;2.37;100.00;103107.28;2613897;36;20037;-56
2023/02/09 10:36:26;;;;;;;15.65;7.72;;;;;;;2.42;100.00;103105.38;2616347;31;20041;-57
2023/02/09 10:39:03;;;;;;;19.80;8.30;;;;;;;2.41;100.00;103111.59;2616205;36;20030;-54
2023/02/09 10:41:35;;;;;;;14.65;8.13;;;;;;;2.52;100.00;103123.81;2616282;36;20439;-55
2023/02/09 10:44:16;;;;;;;13.35;7.18;;;;;;;2.38;100.00;103130.25;2615631;31;20035;-56
2023/02/09 10:46:45;;;;;;;14.57;7.68;;;;;;;2.52;100.00;103138.00;2614863;36;20038;-55
2023/02/09 10:49:29;;;;;;;15.10;8.05;;;;;;;2.79;100.00;103125.09;2614192;36;20057;-55
2023/02/09 10:52:09;;;;;;;12.00;7.30;;;;;;;2.66;100.00;103135.09;2614368;36;20038;-55
2023/02/09 10:54:42;;;;;;;13.80;8.43;;;;;;;2.71;100.00;103137.66;2614004;31;20049;-55
2023/02/09 10:57:23;;;;;;;14.82;8.00;;;;;;;2.64;100.00;103144.88;2615553;36;20042;-53
2023/02/09 10:59:57;;;;;;;15.35;7.63;;;;;;;2.61;100.00;103136.97;2615930;31;20030;-55
2023/02/09 11:02:41;;;;;;;13.13;7.80;;;;;;;2.63;100.00;103132.47;2614483;36;20053;-56
2023/02/09 11:05:29;;;;;;;16.08;8.57;;;;;;;2.51;100.00;103138.91;2613022;36;20088;-53
2023/02/09 11:08:02;;;;;;;19.10;9.02;;;;;;;2.45;100.00;103136.38;2613302;36;20609;-56
2023/02/09 11:10:33;;;;;;;17.20;9.32;;;;;;;2.65;100.00;103136.00;2613844;36;20046;-55
2023/02/09 11:13:02;;;;;;;14.07;8.40;;;;;;;2.77;100.00;103126.94;2615538;31;20060;-56
2023/02/09 11:15:39;;;;;;;20.30;9.52;;;;;;;2.98;100.00;103130.94;2615377;36;20416;-57
2023/02/09 11:18:16;;;;;;;14.48;9.10;;;;;;;3.01;100.00;103116.69;2613163;31;20045;-56
2023/02/09 11:20:48;;;;;;;18.45;9.77;;;;;;;2.98;100.00;103128.28;2614670;36;20604;-57
2023/02/09 11:23:34;;;;;;;17.75;8.65;;;;;;;3.07;100.00;103127.22;2615093;36;20656;-55
2023/02/09 11:26:09;;;;;;;18.02;9.02;;;;;;;3.09;100.00;103118.28;2613888;36;20439;-57
2023/02/09 11:28:49;;;;;;;20.08;9.00;;;;;;;3.33;100.00;103116.03;2614006;31;20042;-57
2023/02/09 11:31:36;;;;;;;26.58;9.88;;;;;;;3.46;100.00;103122.81;2615404;36;20038;-57
2023/02/09 11:34:19;;;;;;;17.48;9.43;;;;;;;3.51;100.00;103114.72;2613437;36;20034;-56
2023/02/09 11:36:56;;;;;;;17.92;10.18;;;;;;;3.71;100.00;103111.63;2615161;36;20026;-56
2023/02/09 11:39:35;;;;;;;16.10;8.95;;;;;;;4.03;100.00;103115.28;2615223;36;20038;-58
2023/02/09 11:44:56;;;;;;;17.00;9.65;;;;;;;3.89;100.00;103114.72;2614462;36;20119;-54
2023/02/09 11:47:32;;;;;;;17.23;9.23;;;;;;;3.86;100.00;103119.22;2614313;36;20045;-55
2023/02/09 11:50:03;;;;;;;14.98;8.77;;;;;;;3.90;100.00;103116.50;2615580;36;20231;-57